Time;durP1;ratioP1;P1;durP2;ratioP2;P2;SDS_P1;SDS_P2;PMS_P1;PMS_P2;Temp;Humidity;BMP_temperature;BMP_pressure;BME280_temperature;BME280_humidity;BME280_pressure;Samples;Min_cycle;Max_cycle;Signal;HPM_P1;HPM_P2
2024/01/10 00:02:04;;;;;;;14.45;8.30;;;-3.00;99.90;;;;;;5035392;28;20124;-64
2024/01/10 00:04:30;;;;;;;14.75;8.25;;;-3.00;99.90;;;;;;5053358;28;20080;-64
2024/01/10 00:06:55;;;;;;;13.30;8.00;;;-3.10;99.90;;;;;;5053815;28;20425;-64
2024/01/10 00:09:21;;;;;;;14.70;8.65;;;-3.10;99.90;;;;;;5018156;28;20087;-64
2024/01/10 00:11:47;;;;;;;17.13;8.88;;;-3.10;99.90;;;;;;5035660;28;20056;-64
2024/01/10 00:14:12;;;;;;;16.55;9.48;;;-3.10;99.90;;;;;;5019183;28;20045;-64
2024/01/10 00:16:38;;;;;;;14.00;8.35;;;-3.10;99.90;;;;;;5034867;28;20045;-64
2024/01/10 00:19:03;;;;;;;15.15;9.95;;;-3.20;99.90;;;;;;5035969;28;20482;-64
2024/01/10 00:21:30;;;;;;;15.02;9.70;;;-3.20;99.90;;;;;;5035789;28;20490;-64
2024/01/10 00:23:56;;;;;;;16.33;9.35;;;-3.20;99.90;;;;;;5053160;28;20517;-64
2024/01/10 00:26:22;;;;;;;16.17;9.70;;;-3.20;99.90;;;;;;5051746;28;20087;-64
2024/01/10 00:28:47;;;;;;;18.20;9.98;;;-3.20;99.90;;;;;;5032594;28;20033;-64
2024/01/10 00:31:13;;;;;;;16.25;9.15;;;-3.20;99.90;;;;;;4999272;28;20045;-64
2024/01/10 00:33:39;;;;;;;19.10;9.63;;;-3.20;99.90;;;;;;5015382;28;20048;-64
2024/01/10 00:36:06;;;;;;;19.17;9.88;;;-3.20;99.90;;;;;;5040058;28;20060;-64
2024/01/10 00:38:31;;;;;;;17.23;9.18;;;-3.30;99.90;;;;;;5034674;28;20036;-66
2024/01/10 00:40:57;;;;;;;19.60;10.27;;;-3.20;99.90;;;;;;5053417;28;20070;-64
2024/01/10 00:43:23;;;;;;;19.08;11.13;;;-3.20;99.90;;;;;;5017062;28;20097;-64
2024/01/10 00:45:48;;;;;;;20.85;10.88;;;-3.30;99.90;;;;;;5035674;28;20049;-64
2024/01/10 00:48:14;;;;;;;24.00;10.82;;;-3.30;99.90;;;;;;5015196;28;20060;-64
2024/01/10 00:50:40;;;;;;;17.60;10.63;;;-3.20;99.90;;;;;;5014224;28;20049;-64
2024/01/10 00:53:05;;;;;;;18.60;11.18;;;-3.20;99.90;;;;;;4999085;28;20047;-64
2024/01/10 00:55:31;;;;;;;18.67;11.25;;;-3.20;99.90;;;;;;5014711;28;20037;-64
2024/01/10 00:57:57;;;;;;;18.33;11.75;;;-3.20;99.90;;;;;;5028707;28;20041;-64
2024/01/10 01:00:22;;;;;;;18.65;11.27;;;-3.20;99.90;;;;;;5034797;28;20098;-64
2024/01/10 01:02:48;;;;;;;20.63;11.80;;;-3.20;99.90;;;;;;5034892;28;20037;-64
2024/01/10 01:05:13;;;;;;;21.33;12.38;;;-3.20;99.90;;;;;;5016498;28;20068;-65
2024/01/10 01:07:39;;;;;;;18.55;11.10;;;-3.20;99.90;;;;;;5014859;28;20061;-64
2024/01/10 01:10:08;;;;;;;19.05;11.85;;;-3.20;99.90;;;;;;5014927;28;20049;-64
2024/01/10 01:12:34;;;;;;;22.13;13.73;;;-3.20;99.90;;;;;;5014040;28;20049;-64
2024/01/10 01:14:59;;;;;;;21.38;13.05;;;-3.20;99.90;;;;;;5032738;28;20041;-64
2024/01/10 01:17:25;;;;;;;19.40;11.48;;;-3.20;99.90;;;;;;5032394;28;20084;-64
2024/01/10 01:19:51;;;;;;;22.67;12.07;;;-3.20;99.90;;;;;;5031586;28;20125;-64
2024/01/10 01:22:16;;;;;;;20.98;13.23;;;-3.20;99.90;;;;;;5014507;28;20044;-64
2024/01/10 01:24:42;;;;;;;23.33;13.38;;;-3.20;99.90;;;;;;5032396;28;20046;-64
2024/01/10 01:27:07;;;;;;;25.25;14.20;;;-3.20;99.90;;;;;;5038621;28;20041;-67
2024/01/10 01:29:33;;;;;;;24.67;13.70;;;-3.20;99.90;;;;;;5032403;28;20041;-64
2024/01/10 01:31:59;;;;;;;25.45;14.60;;;-3.20;99.90;;;;;;5046768;28;20041;-64
2024/01/10 01:34:24;;;;;;;26.15;14.82;;;-3.20;99.90;;;;;;5017935;28;20067;-64
2024/01/10 01:36:51;;;;;;;23.63;14.07;;;-3.20;99.90;;;;;;5050690;28;20529;-64
2024/01/10 01:39:18;;;;;;;21.77;13.13;;;-3.20;99.90;;;;;;5016732;28;20041;-64
2024/01/10 01:41:43;;;;;;;23.13;14.07;;;-3.20;99.90;;;;;;5050643;28;20516;-64
2024/01/10 01:44:09;;;;;;;24.45;14.45;;;-3.20;99.90;;;;;;5046945;28;20044;-64
2024/01/10 01:46:35;;;;;;;25.70;16.23;;;-3.20;99.90;;;;;;5030931;28;20410;-64
2024/01/10 01:49:02;;;;;;;27.52;14.95;;;-3.20;99.90;;;;;;5014748;28;20371;-64
2024/01/10 01:51:29;;;;;;;26.55;15.93;;;-3.20;99.90;;;;;;5031779;28;20042;-64
2024/01/10 01:53:55;;;;;;;26.85;16.73;;;-3.20;99.90;;;;;;5031296;28;20033;-64
2024/01/10 01:56:21;;;;;;;24.33;14.20;;;-3.20;99.90;;;;;;5013851;28;20509;-64
2024/01/10 01:58:50;;;;;;;26.25;14.68;;;-3.10;99.90;;;;;;5027610;28;20049;-64
2024/01/10 02:01:16;;;;;;;21.95;14.15;;;-3.20;99.90;;;;;;5049636;28;20064;-64
2024/01/10 02:03:42;;;;;;;25.33;14.63;;;-3.20;99.90;;;;;;5017078;28;20080;-64
2024/01/10 02:06:08;;;;;;;22.73;13.65;;;-3.20;99.90;;;;;;5050312;28;20080;-64
2024/01/10 02:08:35;;;;;;;26.38;15.50;;;-3.10;99.90;;;;;;5032898;28;20091;-64
2024/01/10 02:11:01;;;;;;;24.33;14.70;;;-3.20;99.90;;;;;;5050786;28;20053;-64
2024/01/10 02:13:28;;;;;;;24.25;13.93;;;-3.20;99.90;;;;;;5017154;28;20048;-64
2024/01/10 02:15:54;;;;;;;20.73;13.88;;;-3.20;99.90;;;;;;5033564;28;20463;-64
2024/01/10 02:18:20;;;;;;;28.42;16.20;;;-3.20;99.90;;;;;;5031416;28;20402;-64
2024/01/10 02:20:46;;;;;;;30.40;15.38;;;-3.10;99.90;;;;;;5031547;28;20038;-64
2024/01/10 02:23:12;;;;;;;25.92;15.05;;;-3.20;99.90;;;;;;5030535;28;20040;-64
2024/01/10 02:25:39;;;;;;;23.95;14.95;;;-3.20;99.90;;;;;;5017822;28;20119;-64
2024/01/10 02:28:05;;;;;;;23.70;14.77;;;-3.20;99.90;;;;;;5017238;28;20045;-64
2024/01/10 02:30:31;;;;;;;24.40;14.88;;;-3.20;99.90;;;;;;5032802;28;20048;-64
2024/01/10 02:32:57;;;;;;;25.58;14.52;;;-3.20;99.90;;;;;;5050142;28;20048;-64
2024/01/10 02:35:22;;;;;;;25.05;14.20;;;-3.20;99.90;;;;;;5038420;28;20167;-64
2024/01/10 02:37:51;;;;;;;27.02;15.48;;;-3.20;99.90;;;;;;5025426;28;20073;-64
2024/01/10 02:40:17;;;;;;;27.55;16.00;;;-3.20;99.90;;;;;;5013509;28;20076;-64
2024/01/10 02:42:43;;;;;;;23.95;14.13;;;-3.20;99.90;;;;;;5012862;28;20143;-64
2024/01/10 02:45:09;;;;;;;28.90;16.15;;;-3.20;99.90;;;;;;4998271;28;20041;-64
2024/01/10 02:47:36;;;;;;;22.52;14.80;;;-3.20;99.90;;;;;;5031219;28;20390;-64
2024/01/10 02:50:02;;;;;;;25.10;13.88;;;-3.20;99.90;;;;;;5013173;28;20080;-64
2024/01/10 02:52:27;;;;;;;23.20;14.55;;;-3.20;99.90;;;;;;4997037;28;20454;-64
2024/01/10 02:54:53;;;;;;;24.33;14.38;;;-3.20;99.90;;;;;;5013422;28;20072;-64
2024/01/10 02:57:19;;;;;;;26.60;14.88;;;-3.20;99.90;;;;;;5029765;28;20037;-64
2024/01/10 02:59:44;;;;;;;26.90;17.23;;;-3.20;99.90;;;;;;5051089;28;20095;-64
2024/01/10 03:02:10;;;;;;;23.92;14.60;;;-3.30;99.90;;;;;;5050938;28;20037;-64
2024/01/10 03:04:35;;;;;;;20.50;12.82;;;-3.30;99.90;;;;;;5050261;28;20033;-64
2024/01/10 03:07:01;;;;;;;28.15;15.48;;;-3.30;99.90;;;;;;5053276;28;20056;-64
2024/01/10 03:09:27;;;;;;;24.85;15.02;;;-3.30;99.90;;;;;;5053459;28;20048;-64
2024/01/10 03:11:53;;;;;;;24.40;14.57;;;-3.30;99.90;;;;;;5035980;28;20049;-64
2024/01/10 03:14:18;;;;;;;21.77;13.18;;;-3.30;99.90;;;;;;5025345;28;20041;-64
2024/01/10 03:16:44;;;;;;;23.73;14.10;;;-3.30;99.90;;;;;;5016782;28;20421;-64
2024/01/10 03:19:09;;;;;;;23.48;13.60;;;-3.20;99.90;;;;;;5016079;28;20409;-64
2024/01/10 03:21:35;;;;;;;22.17;13.43;;;-3.20;99.90;;;;;;5017021;28;20042;-64
2024/01/10 03:24:01;;;;;;;24.63;14.93;;;-3.20;99.90;;;;;;5017147;28;20045;-64
2024/01/10 03:26:27;;;;;;;21.65;13.15;;;-3.20;99.90;;;;;;5033609;28;20086;-64
2024/01/10 03:28:53;;;;;;;22.88;13.52;;;-3.20;99.90;;;;;;5016700;28;20045;-64
2024/01/10 03:31:19;;;;;;;22.80;13.13;;;-3.20;99.90;;;;;;5016536;28;20045;-64
2024/01/10 03:33:45;;;;;;;19.15;12.02;;;-3.20;99.90;;;;;;5001920;28;20033;-64
2024/01/10 03:36:13;;;;;;;21.35;12.00;;;-3.10;99.90;;;;;;5016990;28;20060;-64
2024/01/10 03:38:39;;;;;;;20.02;11.60;;;-3.10;99.90;;;;;;5015743;28;20050;-64
2024/01/10 03:41:05;;;;;;;20.35;11.52;;;-3.10;99.90;;;;;;5016730;28;20041;-64
2024/01/10 03:43:31;;;;;;;22.33;12.80;;;-3.10;99.90;;;;;;5038556;28;20104;-64
2024/01/10 03:45:59;;;;;;;21.55;12.75;;;-3.10;99.90;;;;;;5053632;28;20044;-64
2024/01/10 03:48:25;;;;;;;19.88;11.77;;;-3.10;99.90;;;;;;5036329;28;20095;-64
2024/01/10 03:50:51;;;;;;;21.77;14.15;;;-3.10;99.90;;;;;;5035705;28;20048;-64
2024/01/10 03:53:16;;;;;;;20.52;11.80;;;-3.10;99.90;;;;;;5002545;28;20045;-64
2024/01/10 03:55:42;;;;;;;22.85;15.10;;;-3.10;99.90;;;;;;5016110;28;20042;-64
2024/01/10 03:58:08;;;;;;;54.47;26.10;;;-3.10;99.90;;;;;;5033957;28;20128;-64
2024/01/10 04:00:33;;;;;;;51.95;25.60;;;-3.10;99.90;;;;;;5015465;28;20116;-64
2024/01/10 04:02:59;;;;;;;56.25;26.00;;;-3.10;99.90;;;;;;5034209;28;20033;-64
2024/01/10 04:05:25;;;;;;;35.63;18.50;;;-3.10;99.90;;;;;;5015936;28;20121;-64
2024/01/10 04:07:51;;;;;;;34.55;18.70;;;-3.10;99.90;;;;;;5015226;28;20355;-64
2024/01/10 04:10:17;;;;;;;22.15;12.43;;;-3.10;99.90;;;;;;5016248;28;20120;-64
2024/01/10 04:12:44;;;;;;;48.90;26.63;;;-3.10;99.90;;;;;;5053115;28;20442;-64
2024/01/10 04:15:10;;;;;;;42.53;23.10;;;-3.10;99.90;;;;;;5034887;28;20048;-64
2024/01/10 04:17:36;;;;;;;26.20;14.43;;;-3.10;99.90;;;;;;5034517;28;20041;-64
2024/01/10 04:20:02;;;;;;;22.40;14.45;;;-3.10;99.90;;;;;;5029948;28;20107;-64
2024/01/10 04:22:28;;;;;;;34.40;20.60;;;-3.10;99.90;;;;;;4998770;28;20127;-64
2024/01/10 04:24:57;;;;;;;33.60;18.45;;;-3.10;99.90;;;;;;5015798;28;20079;-64
2024/01/10 04:27:23;;;;;;;28.83;17.45;;;-3.20;99.90;;;;;;5033461;28;20098;-64
2024/01/10 04:29:48;;;;;;;70.82;44.78;;;-3.10;99.90;;;;;;5032705;28;20041;-64
2024/01/10 04:32:14;;;;;;;27.67;17.65;;;-3.10;99.90;;;;;;5015557;28;20541;-64
2024/01/10 04:34:40;;;;;;;46.90;25.00;;;-3.20;99.90;;;;;;5031999;28;20041;-64
2024/01/10 04:37:06;;;;;;;22.13;13.15;;;-3.20;99.90;;;;;;5032563;28;20126;-64
2024/01/10 04:39:33;;;;;;;29.35;17.95;;;-3.20;99.90;;;;;;5015141;28;20480;-64
2024/01/10 04:41:59;;;;;;;30.05;19.80;;;-3.20;99.90;;;;;;5012272;28;20047;-64
2024/01/10 04:44:25;;;;;;;40.45;25.05;;;-3.20;99.90;;;;;;5052974;28;20037;-64
2024/01/10 04:46:51;;;;;;;36.80;24.60;;;-3.20;99.90;;;;;;5052949;28;20056;-64
2024/01/10 04:49:17;;;;;;;19.85;12.43;;;-3.20;99.90;;;;;;5035827;28;20121;-64
2024/01/10 04:51:42;;;;;;;26.52;16.67;;;-3.20;99.90;;;;;;5015387;28;20121;-64
2024/01/10 04:54:08;;;;;;;27.65;16.50;;;-3.20;99.90;;;;;;5015034;28;20045;-64
2024/01/10 04:56:36;;;;;;;23.15;14.05;;;-3.20;99.90;;;;;;5014211;28;20155;-63
2024/01/10 04:59:02;;;;;;;23.45;12.77;;;-3.30;99.90;;;;;;5015214;28;20049;-63
2024/01/10 05:01:28;;;;;;;22.23;13.77;;;-3.30;99.90;;;;;;5015143;28;20063;-64
2024/01/10 05:03:53;;;;;;;18.80;12.93;;;-3.30;99.90;;;;;;5031905;28;20479;-64
2024/01/10 05:06:19;;;;;;;28.77;18.27;;;-3.30;99.90;;;;;;5014662;28;20490;-63
2024/01/10 05:08:45;;;;;;;24.73;17.05;;;-3.30;99.90;;;;;;5015190;28;20057;-63
2024/01/10 05:11:11;;;;;;;35.88;22.52;;;-3.30;99.90;;;;;;5013942;28;20476;-64
2024/01/10 05:13:37;;;;;;;23.85;15.32;;;-3.30;99.90;;;;;;5032416;28;20045;-64
2024/01/10 05:16:03;;;;;;;26.15;15.82;;;-3.30;99.90;;;;;;5019330;28;20047;-63
2024/01/10 05:18:29;;;;;;;21.48;13.07;;;-3.30;99.90;;;;;;5033578;28;20056;-63
2024/01/10 05:20:55;;;;;;;19.15;12.98;;;-3.30;99.90;;;;;;5051560;28;20040;-64
2024/01/10 05:23:20;;;;;;;23.58;15.52;;;-3.20;99.90;;;;;;5047973;28;20041;-63
2024/01/10 05:25:46;;;;;;;26.23;14.65;;;-3.20;99.90;;;;;;5031746;28;20034;-64
2024/01/10 05:28:12;;;;;;;24.85;14.90;;;-3.20;99.90;;;;;;5014426;28;20406;-64
2024/01/10 05:30:38;;;;;;;28.00;17.13;;;-3.20;99.90;;;;;;5031984;28;20454;-63
2024/01/10 05:33:04;;;;;;;26.50;16.23;;;-3.20;99.90;;;;;;5013878;28;20116;-63
2024/01/10 05:35:29;;;;;;;30.25;18.77;;;-3.20;99.90;;;;;;5014228;28;20442;-63
2024/01/10 05:37:55;;;;;;;28.63;17.98;;;-3.20;99.90;;;;;;5032164;28;20090;-63
2024/01/10 05:40:20;;;;;;;36.15;19.75;;;-3.20;99.90;;;;;;5013869;28;20045;-63
2024/01/10 05:42:46;;;;;;;23.35;14.40;;;-3.30;99.90;;;;;;5014398;28;20042;-63
2024/01/10 05:45:12;;;;;;;20.83;11.95;;;-3.20;99.90;;;;;;5013875;28;20107;-63
2024/01/10 05:47:37;;;;;;;23.13;15.27;;;-3.20;99.90;;;;;;5033889;28;20055;-63
2024/01/10 05:50:06;;;;;;;26.80;18.05;;;-3.20;99.90;;;;;;5038665;28;20037;-64
2024/01/10 05:52:33;;;;;;;26.75;14.55;;;-3.20;99.90;;;;;;5031902;28;20099;-63
2024/01/10 05:55:01;;;;;;;22.40;13.45;;;-3.20;99.90;;;;;;5014111;28;20538;-63
2024/01/10 05:57:27;;;;;;;22.55;13.32;;;-3.20;99.90;;;;;;5013970;28;20046;-63
2024/01/10 05:59:56;;;;;;;23.88;15.95;;;-3.20;99.90;;;;;;5013396;28;20048;-63
2024/01/10 06:02:25;;;;;;;24.90;15.80;;;-3.20;99.90;;;;;;5014016;28;20039;-63
2024/01/10 06:04:51;;;;;;;24.88;15.30;;;-3.20;99.90;;;;;;5031635;28;20119;-63
2024/01/10 06:07:16;;;;;;;21.95;14.75;;;-3.20;99.90;;;;;;5030676;28;20200;-63
2024/01/10 06:09:43;;;;;;;23.27;14.50;;;-3.20;99.90;;;;;;5013736;28;20042;-63
2024/01/10 06:12:09;;;;;;;25.70;14.98;;;-3.20;99.90;;;;;;5010318;28;20045;-63
2024/01/10 06:14:35;;;;;;;22.05;14.32;;;-3.20;99.90;;;;;;5024654;28;20038;-63
2024/01/10 06:17:03;;;;;;;26.02;16.08;;;-3.20;99.90;;;;;;5014205;28;20055;-63
2024/01/10 06:19:30;;;;;;;23.33;15.32;;;-3.20;99.90;;;;;;5013874;28;20056;-63
2024/01/10 06:21:57;;;;;;;22.92;14.55;;;-3.20;99.90;;;;;;5026601;28;20120;-63
2024/01/10 06:24:22;;;;;;;24.88;15.40;;;-3.20;99.90;;;;;;5033546;28;20428;-63
2024/01/10 06:26:49;;;;;;;31.33;16.90;;;-3.20;99.90;;;;;;5033298;28;20040;-63
2024/01/10 06:29:15;;;;;;;25.88;16.00;;;-3.30;99.90;;;;;;5032467;28;20486;-63
2024/01/10 06:31:41;;;;;;;25.58;15.90;;;-3.20;99.90;;;;;;5033517;28;20033;-63
2024/01/10 06:34:07;;;;;;;28.15;18.38;;;-3.20;99.90;;;;;;5050717;28;20444;-63
2024/01/10 06:36:33;;;;;;;24.80;15.90;;;-3.20;99.90;;;;;;5031684;28;20112;-63
2024/01/10 06:38:58;;;;;;;30.45;17.75;;;-3.30;99.90;;;;;;5014352;28;20435;-63
2024/01/10 06:41:24;;;;;;;29.08;18.25;;;-3.30;99.90;;;;;;5030805;28;20498;-63
2024/01/10 06:43:54;;;;;;;27.08;16.27;;;-3.30;99.90;;;;;;5034465;28;20490;-63
2024/01/10 06:46:20;;;;;;;26.75;15.98;;;-3.30;99.90;;;;;;5017852;28;20088;-63
2024/01/10 06:48:47;;;;;;;25.35;15.15;;;-3.30;99.90;;;;;;5016405;28;20033;-63
2024/01/10 06:51:13;;;;;;;27.23;16.92;;;-3.30;99.90;;;;;;5033446;28;20048;-63
2024/01/10 06:53:40;;;;;;;27.00;16.45;;;-3.30;99.90;;;;;;5035452;28;20506;-63
2024/01/10 06:56:07;;;;;;;28.60;16.58;;;-3.30;99.90;;;;;;5034609;28;20029;-63
2024/01/10 06:58:33;;;;;;;23.70;15.57;;;-3.30;99.90;;;;;;5017229;28;20509;-63
2024/01/10 07:01:04;;;;;;;25.35;16.05;;;-3.30;99.90;;;;;;5027468;28;20033;-64
2024/01/10 07:03:29;;;;;;;24.17;15.05;;;-3.30;99.90;;;;;;5032316;28;20502;-63
2024/01/10 07:05:57;;;;;;;27.20;15.43;;;-3.30;99.90;;;;;;5053775;28;20092;-63
2024/01/10 07:08:22;;;;;;;26.65;17.90;;;-3.30;99.90;;;;;;5036675;28;20049;-63
2024/01/10 07:10:48;;;;;;;58.97;29.83;;;-3.30;99.90;;;;;;5035912;28;20036;-63
2024/01/10 07:13:14;;;;;;;60.03;28.08;;;-3.30;99.90;;;;;;5034457;28;20174;-63
2024/01/10 07:15:39;;;;;;;115.43;50.15;;;-3.30;99.90;;;;;;5005955;28;20052;-63
2024/01/10 07:18:06;;;;;;;46.70;21.00;;;-3.30;99.90;;;;;;5039495;28;20036;-63
2024/01/10 07:20:32;;;;;;;69.90;34.70;;;-3.30;99.90;;;;;;5049700;28;20041;-63
2024/01/10 07:22:59;;;;;;;32.03;19.98;;;-3.30;99.90;;;;;;5023440;28;20036;-63
2024/01/10 07:25:25;;;;;;;35.35;24.17;;;-3.30;99.90;;;;;;5035707;28;20041;-63
2024/01/10 07:27:53;;;;;;;34.88;20.90;;;-3.30;99.90;;;;;;5051410;28;20044;-63
2024/01/10 07:30:19;;;;;;;26.17;16.15;;;-3.30;99.90;;;;;;5016942;28;20511;-63
2024/01/10 07:32:46;;;;;;;22.38;14.07;;;-3.30;99.90;;;;;;5038783;28;20033;-63
2024/01/10 07:35:13;;;;;;;24.55;14.43;;;-3.30;99.90;;;;;;5031834;28;20033;-63
2024/01/10 07:37:40;;;;;;;22.65;14.75;;;-3.30;99.90;;;;;;5031884;28;20049;-63
2024/01/10 07:40:07;;;;;;;23.45;15.70;;;-3.30;99.90;;;;;;5019130;28;20077;-63
2024/01/10 07:42:33;;;;;;;24.48;14.63;;;-3.30;99.90;;;;;;5034311;28;20389;-64
2024/01/10 07:45:00;;;;;;;25.27;15.20;;;-3.30;99.90;;;;;;5017144;28;20462;-63
2024/01/10 07:47:25;;;;;;;25.83;14.63;;;-3.30;99.90;;;;;;5033502;28;20044;-66
2024/01/10 07:49:51;;;;;;;24.33;16.08;;;-3.30;99.90;;;;;;5034168;28;20094;-63
2024/01/10 07:52:16;;;;;;;22.23;15.00;;;-3.30;99.90;;;;;;5032893;28;20041;-63
2024/01/10 07:54:42;;;;;;;24.70;15.65;;;-3.30;99.90;;;;;;5017289;28;20466;-63
2024/01/10 07:57:08;;;;;;;28.13;17.08;;;-3.30;99.90;;;;;;5050402;28;20045;-63
2024/01/10 07:59:34;;;;;;;23.73;15.30;;;-3.30;99.90;;;;;;5032678;28;20393;-62
2024/01/10 08:02:01;;;;;;;26.15;15.98;;;-3.40;99.90;;;;;;5018680;28;20049;-63
2024/01/10 08:04:27;;;;;;;26.55;14.88;;;-3.40;99.90;;;;;;5024013;28;20045;-63
2024/01/10 08:06:53;;;;;;;23.42;12.85;;;-3.30;99.90;;;;;;5012984;28;20107;-63
2024/01/10 08:09:19;;;;;;;21.15;13.02;;;-3.30;99.90;;;;;;5031934;28;20056;-63
2024/01/10 08:11:45;;;;;;;24.88;14.20;;;-3.30;99.90;;;;;;5043663;28;20071;-63
2024/01/10 08:14:12;;;;;;;22.88;12.95;;;-3.30;99.90;;;;;;5031477;28;20068;-64
2024/01/10 08:16:37;;;;;;;23.55;14.30;;;-3.40;99.90;;;;;;5032473;28;20409;-63
2024/01/10 08:19:03;;;;;;;21.70;12.68;;;-3.30;99.90;;;;;;5032395;28;20040;-63
2024/01/10 08:21:29;;;;;;;20.63;12.90;;;-3.30;99.90;;;;;;5029825;28;20539;-63
2024/01/10 08:23:54;;;;;;;19.20;12.65;;;-3.30;99.90;;;;;;5007647;28;20439;-63
2024/01/10 08:26:20;;;;;;;23.48;13.60;;;-3.30;99.90;;;;;;5012245;28;20045;-63
2024/01/10 08:28:46;;;;;;;24.50;14.43;;;-3.30;99.90;;;;;;5025051;28;20044;-64
2024/01/10 08:31:12;;;;;;;27.15;14.90;;;-3.30;99.90;;;;;;5019398;28;20049;-63
2024/01/10 08:33:39;;;;;;;23.40;13.55;;;-3.20;99.90;;;;;;5030993;28;20059;-63
2024/01/10 08:36:05;;;;;;;25.38;13.52;;;-3.20;99.90;;;;;;5012700;28;20057;-63
2024/01/10 08:38:31;;;;;;;25.67;15.45;;;-3.20;99.90;;;;;;5015029;28;20110;-63
2024/01/10 08:40:57;;;;;;;21.58;12.50;;;-3.20;99.90;;;;;;4999928;28;20041;-63
2024/01/10 08:43:22;;;;;;;23.73;12.30;;;-3.20;99.90;;;;;;5024917;28;20099;-64
2024/01/10 08:45:48;;;;;;;22.75;13.10;;;-3.10;99.90;;;;;;5018509;28;20065;-63
2024/01/10 08:48:14;;;;;;;19.15;11.95;;;-3.10;99.90;;;;;;5025470;28;20557;-63
2024/01/10 08:50:39;;;;;;;23.65;12.80;;;-3.10;99.90;;;;;;5031891;28;20041;-63
2024/01/10 08:53:05;;;;;;;26.45;12.60;;;-3.00;99.90;;;;;;5041113;28;20421;-63
2024/01/10 08:55:36;;;;;;;20.33;10.95;;;-3.00;99.90;;;;;;5014772;28;20140;-63
2024/01/10 08:58:03;;;;;;;19.33;10.23;;;-3.00;99.90;;;;;;5032408;28;20072;-63
2024/01/10 09:00:29;;;;;;;21.60;11.40;;;-3.00;99.90;;;;;;5032092;28;20530;-63
2024/01/10 09:02:57;;;;;;;19.08;11.75;;;-2.90;99.90;;;;;;5031516;28;20036;-63
2024/01/10 09:05:23;;;;;;;19.10;10.88;;;-2.90;99.90;;;;;;5036825;28;20037;-63
2024/01/10 09:07:50;;;;;;;19.60;10.60;;;-2.90;99.90;;;;;;5012212;28;20648;-63
2024/01/10 09:10:16;;;;;;;22.92;11.40;;;-2.90;99.90;;;;;;5004324;28;20044;-63
2024/01/10 09:12:45;;;;;;;18.77;10.75;;;-2.80;99.90;;;;;;5030858;28;20055;-63
2024/01/10 09:15:13;;;;;;;49.05;22.33;;;-2.80;99.90;;;;;;5026824;28;20124;-63
2024/01/10 09:17:39;;;;;;;54.50;22.92;;;-2.80;99.90;;;;;;5010449;28;20056;-63
2024/01/10 09:20:06;;;;;;;82.75;30.38;;;-2.70;99.90;;;;;;5020884;28;20650;-63
2024/01/10 09:22:31;;;;;;;76.93;29.90;;;-2.70;99.90;;;;;;5030303;28;20036;-63
2024/01/10 09:25:03;;;;;;;50.80;24.38;;;-2.70;99.90;;;;;;5039701;28;20478;-63
2024/01/10 09:27:29;;;;;;;63.47;29.58;;;-2.60;99.90;;;;;;5031812;28;20128;-63
2024/01/10 09:29:55;;;;;;;42.70;20.23;;;-2.60;99.90;;;;;;5011092;28;20045;-63
2024/01/10 09:32:22;;;;;;;48.22;21.92;;;-2.60;99.90;;;;;;5005397;28;20422;-63
2024/01/10 09:34:47;;;;;;;25.00;13.70;;;-2.60;99.90;;;;;;5017935;28;20087;-63
2024/01/10 09:37:13;;;;;;;34.20;17.38;;;-2.50;99.90;;;;;;5034285;28;20041;-63
2024/01/10 09:39:39;;;;;;;36.65;18.45;;;-2.50;99.90;;;;;;5028427;28;20103;-63
2024/01/10 09:42:06;;;;;;;39.53;19.63;;;-2.40;99.90;;;;;;5014230;28;20051;-63
2024/01/10 09:44:33;;;;;;;51.38;23.88;;;-2.40;99.90;;;;;;5029669;28;20159;-63
2024/01/10 09:47:00;;;;;;;28.02;12.95;;;-2.30;99.90;;;;;;5031061;28;20048;-63
2024/01/10 09:49:26;;;;;;;26.70;13.98;;;-2.30;99.90;;;;;;5030792;28;20106;-63
2024/01/10 09:52:01;;;;;;;19.35;9.93;;;-2.20;99.90;;;;;;5014214;28;20044;-63
2024/01/10 09:54:30;;;;;;;19.02;11.60;;;-2.20;99.90;;;;;;5031390;28;20045;-63
2024/01/10 09:56:57;;;;;;;19.42;9.40;;;-2.10;99.90;;;;;;5030774;28;20049;-63
2024/01/10 09:59:23;;;;;;;18.48;9.60;;;-2.10;99.90;;;;;;5025807;28;20041;-63
2024/01/10 10:01:51;;;;;;;17.60;8.55;;;-2.10;99.90;;;;;;5048552;28;20410;-63
2024/01/10 10:04:19;;;;;;;16.95;6.95;;;-2.10;99.90;;;;;;5030594;28;20040;-63
2024/01/10 10:06:45;;;;;;;16.42;7.82;;;-2.10;99.90;;;;;;5011776;28;20466;-63
2024/01/10 10:09:12;;;;;;;16.10;7.65;;;-2.00;99.90;;;;;;4991476;28;20060;-63
2024/01/10 10:11:38;;;;;;;19.98;9.20;;;-2.00;99.90;;;;;;5007358;28;20050;-63
2024/01/10 10:14:17;;;;;;;15.60;6.97;;;-2.00;99.90;;;;;;4974571;28;20042;-63
2024/01/10 10:16:43;;;;;;;16.77;7.18;;;-2.00;99.90;;;;;;4990394;28;20426;-63
2024/01/10 10:19:11;;;;;;;19.20;8.75;;;-1.90;99.90;;;;;;4996310;28;20422;-63
2024/01/10 10:21:37;;;;;;;16.42;7.35;;;-1.90;99.90;;;;;;4993396;28;20085;-63
2024/01/10 10:24:04;;;;;;;16.55;8.60;;;-1.90;99.90;;;;;;5007075;28;20494;-63
2024/01/10 10:26:32;;;;;;;17.23;8.48;;;-1.80;99.90;;;;;;4991549;28;20406;-63
2024/01/10 10:28:58;;;;;;;15.43;7.43;;;-1.80;99.90;;;;;;5015815;28;20525;-63
2024/01/10 10:31:24;;;;;;;18.13;8.55;;;-1.80;99.90;;;;;;4998962;28;20045;-64
2024/01/10 10:33:51;;;;;;;18.98;10.18;;;-1.70;99.90;;;;;;5009275;28;20045;-63
2024/01/10 10:36:17;;;;;;;27.20;13.70;;;-1.70;99.90;;;;;;5010438;28;20053;-63
2024/01/10 10:38:43;;;;;;;19.65;10.88;;;-1.70;99.90;;;;;;4997742;28;20049;-63
2024/01/10 10:41:10;;;;;;;18.38;10.48;;;-1.60;99.90;;;;;;4993469;28;20040;-63
2024/01/10 10:43:37;;;;;;;22.88;9.57;;;-1.60;99.90;;;;;;5006449;28;20034;-64
2024/01/10 10:46:09;;;;;;;18.75;10.48;;;-1.60;99.90;;;;;;5002183;28;20049;-63
2024/01/10 10:48:36;;;;;;;21.42;13.68;;;-1.60;99.90;;;;;;5005602;28;20088;-63
2024/01/10 10:51:33;;;;;;;18.35;9.85;;;-1.60;99.90;;;;;;4997736;28;20049;-63
2024/01/10 10:54:00;;;;;;;16.50;10.38;;;-1.50;99.90;;;;;;4994023;28;20046;-63
2024/01/10 10:56:30;;;;;;;17.27;7.50;;;-1.50;99.90;;;;;;5010303;28;20049;-63
2024/01/10 10:58:59;;;;;;;14.65;7.38;;;-1.50;99.90;;;;;;4993997;28;20049;-63
2024/01/10 11:01:27;;;;;;;14.68;8.40;;;-1.40;99.90;;;;;;5010151;28;20049;-63
2024/01/10 11:03:53;;;;;;;15.00;6.97;;;-1.40;99.90;;;;;;4977125;28;20061;-63
2024/01/10 11:06:21;;;;;;;14.98;8.70;;;-1.40;99.90;;;;;;5026187;28;20455;-63
2024/01/10 11:09:11;;;;;;;14.63;7.18;;;-1.30;99.90;;;;;;5032419;28;20041;-63
2024/01/10 11:12:07;;;;;;;14.50;7.75;;;-1.30;99.90;;;;;;5024420;28;20107;-63
2024/01/10 11:14:42;;;;;;;14.73;6.95;;;-1.30;99.90;;;;;;5025943;28;20106;-63
2024/01/10 11:17:32;;;;;;;13.18;5.80;;;-1.20;99.90;;;;;;5037231;28;20037;-62
2024/01/10 11:20:22;;;;;;;13.65;6.00;;;-1.20;99.90;;;;;;5013504;28;20033;-63
2024/01/10 11:23:21;;;;;;;30.15;15.57;;;-1.20;99.90;;;;;;5029075;28;20080;-63
2024/01/10 11:25:46;;;;;;;17.70;9.70;;;-1.10;99.90;;;;;;5015862;28;20464;-64
2024/01/10 11:28:13;;;;;;;17.13;7.38;;;-1.10;99.90;;;;;;5008783;28;20124;-64
2024/01/10 11:30:51;;;;;;;15.00;6.95;;;-1.10;99.90;;;;;;5016047;28;20081;-64
2024/01/10 11:33:40;;;;;;;15.23;9.02;;;-1.00;99.90;;;;;;5000325;28;20124;-64
2024/01/10 11:36:13;;;;;;;13.55;7.07;;;-1.00;99.90;;;;;;5016938;28;20049;-64
2024/01/10 11:38:51;;;;;;;14.50;7.43;;;-0.90;99.90;;;;;;5015819;28;20045;-64
2024/01/10 11:41:35;;;;;;;13.88;6.72;;;-0.90;99.90;;;;;;5000357;28;20045;-64
2024/01/10 11:46:38;;;;;;;14.70;7.07;;;-0.90;99.90;;;;;;5016727;28;20037;-64
2024/01/10 11:49:07;;;;;;;12.10;6.55;;;-0.90;99.90;;;;;;5016758;28;20560;-64
2024/01/10 11:51:35;;;;;;;12.63;5.28;;;-0.90;99.90;;;;;;5015691;28;20041;-64
2024/01/10 11:54:01;;;;;;;10.88;5.72;;;-0.90;99.90;;;;;;5016635;28;20102;-64
2024/01/10 11:56:41;;;;;;;10.32;4.82;;;-0.90;99.90;;;;;;5033997;28;20038;-64
2024/01/10 11:59:08;;;;;;;13.00;6.25;;;-0.90;99.90;;;;;;5015678;28;20045;-64
2024/01/10 12:01:36;;;;;;;16.40;8.20;;;-0.90;99.90;;;;;;5016262;28;20060;-64
2024/01/10 12:04:03;;;;;;;13.25;6.25;;;-0.90;99.90;;;;;;5000063;28;20402;-64
2024/01/10 12:06:29;;;;;;;11.57;5.63;;;-0.90;99.90;;;;;;4998640;28;20084;-64
2024/01/10 12:08:55;;;;;;;17.77;6.18;;;-0.80;99.90;;;;;;5034184;28;20072;-64
2024/01/10 12:11:21;;;;;;;13.20;6.00;;;-0.80;99.90;;;;;;5015996;28;20494;-64
2024/01/10 12:13:47;;;;;;;11.88;5.75;;;-0.80;99.90;;;;;;5033100;28;20037;-64
2024/01/10 12:16:13;;;;;;;15.27;6.10;;;-0.70;99.90;;;;;;5015983;28;20045;-64
2024/01/10 12:18:40;;;;;;;15.70;6.60;;;-0.70;99.90;;;;;;5015910;28;20052;-65
2024/01/10 12:21:06;;;;;;;20.27;9.85;;;-0.70;99.90;;;;;;5015483;28;20117;-64
2024/01/10 12:23:31;;;;;;;13.73;6.55;;;-0.60;99.90;;;;;;5024834;28;20504;-64
2024/01/10 12:26:04;;;;;;;13.27;8.05;;;-0.60;99.90;;;;;;5035885;28;20452;-65
2024/01/10 12:28:30;;;;;;;12.07;5.65;;;-0.60;99.90;;;;;;5053072;28;20041;-64
2024/01/10 12:30:57;;;;;;;11.32;5.50;;;-0.60;99.90;;;;;;5052399;28;20045;-65